Darstellungsparameter: Aktuell verwendete Einstellungen:
Skalierung der Graphiken ... ?
xyx+y,   Skalierungsfaktor:      Skalierung: Modus: x, Faktor: 1
Darstellungszeitraum ... ?
Vom - - bis: - -   Zeitraum: 01.10.2020 - 03.10.2020
Min/Max/Avg-Anzeige ... ?
Zeige MMA aktuell
Zeige MMA Monat
Zeige MMA alles
Zeige --A aktuell
Zeige --A Monat
Zeige --A alles
Keine MMA-Anzeige
MMA:
Average (ber die Originaldaten)
MMA-Basis: 01.10.2020 - 03.10.2020
Quicknavigation für Darstellung... ?
Tage:      1T, 2T, 3T, 5T -1T -2T -3T -5T +1T +2T +3T +5T
Wochen: 1W, 2W, 3W -1W -2W -3W +1W +2W +3W
Monate: 1M, 3M, 6M -1M -3M -6M +1M +3M +6M
Jahre:    1J, 3J, 5J, 10J -1J -3J -5J -10J +1J +3J +5J +10J
Nutze für die Darstellung ... ?
Originaldaten oder Mittelwerte auf ...
Stundenbasis Tagesbasis Wochenbasis
Monatsbasis Jahresbasis      Datenbasis: Original-Daten
Darstellen als:
Statistik (Auto) Statistik J:M      Darstellung:
Zur Graphik,    zurück zur Übersicht aller Sensoren.
 
Tabellarische Datenbersicht: ?
 
Sensor: Nr:Datum:Temp:Abs-Feuchte:Windchill:Wind:
Aussen-T/F 1 01-10-2020 00:00:00 11.2 C 9.63 g/m*3 11.2 C 1.6 km/h
2 01-10-2020 00:05:00 11.2 C 9.63 g/m*3 11.2 C 0 km/h
3 01-10-2020 00:10:00 11.1 C 9.57 g/m*3 11.1 C 0 km/h
4 01-10-2020 00:15:00 11.1 C 9.57 g/m*3 11.1 C 0 km/h
5 01-10-2020 00:20:00 11.1 C 9.57 g/m*3 11.1 C 0 km/h
6 01-10-2020 00:25:00 11.1 C 9.57 g/m*3 11.1 C 0 km/h
7 01-10-2020 00:30:00 11.1 C 9.57 g/m*3 11.1 C 1.6 km/h
8 01-10-2020 00:35:00 11.1 C 9.57 g/m*3 11.1 C 0 km/h
9 01-10-2020 00:40:00 11 C 9.51 g/m*3 11 C 0 km/h
10 01-10-2020 00:45:00 11 C 9.61 g/m*3 11 C 0 km/h
11 01-10-2020 00:50:00 10.9 C 9.55 g/m*3 10.9 C 0 km/h
12 01-10-2020 00:55:00 10.9 C 9.55 g/m*3 10.9 C 0 km/h
13 01-10-2020 01:00:00 10.9 C 9.55 g/m*3 10.9 C 0 km/h
14 01-10-2020 01:05:00 10.9 C 9.55 g/m*3 10.9 C 0 km/h
15 01-10-2020 01:10:00 10.9 C 9.55 g/m*3 10.9 C 0 km/h
16 01-10-2020 01:15:00 10.8 C 9.49 g/m*3 10.8 C 0 km/h
17 01-10-2020 01:20:00 10.8 C 9.49 g/m*3 10.8 C 0 km/h
18 01-10-2020 01:25:00 10.7 C 9.33 g/m*3 10.7 C 0 km/h
19 01-10-2020 01:30:00 10.7 C 9.33 g/m*3 10.7 C 1.6 km/h
20 01-10-2020 01:35:00 10.6 C 9.37 g/m*3 10.6 C 0 km/h
21 01-10-2020 01:40:00 10.6 C 9.37 g/m*3 10.6 C 0 km/h
22 01-10-2020 01:45:00 10.5 C 9.31 g/m*3 10.5 C 0 km/h
23 01-10-2020 01:50:00 10.4 C 9.25 g/m*3 10.4 C 0 km/h
24 01-10-2020 01:55:00 10.4 C 9.25 g/m*3 10.4 C 0 km/h
25 01-10-2020 02:00:00 10.3 C 9.19 g/m*3 10.3 C 0 km/h
Sensor: Nr:Datum:Temp:Abs-Feuchte:Windchill:Wind:
Aussen-T/F 26 01-10-2020 02:05:00 10.3 C 9.19 g/m*3 10.3 C 0 km/h
27 01-10-2020 02:10:00 10.3 C 9.19 g/m*3 10.3 C 0 km/h
28 01-10-2020 02:15:00 10.3 C 9.19 g/m*3 10.3 C 0 km/h
29 01-10-2020 02:20:00 10.2 C 9.14 g/m*3 10.2 C 0 km/h
30 01-10-2020 02:25:00 10.2 C 9.14 g/m*3 10.2 C 0 km/h
31 01-10-2020 02:30:00 10.2 C 9.14 g/m*3 10.2 C 0 km/h
32 01-10-2020 02:35:00 10.1 C 9.08 g/m*3 10.1 C 0 km/h
33 01-10-2020 02:40:00 10.1 C 9.08 g/m*3 10.1 C 0 km/h
34 01-10-2020 02:45:00 10 C 9.02 g/m*3 10 C 1.6 km/h
35 01-10-2020 02:50:00 10 C 9.02 g/m*3 10 C 1.6 km/h
36 01-10-2020 02:55:00 9.9 C 8.96 g/m*3 9.9 C 1.6 km/h
37 01-10-2020 03:00:00 9.9 C 8.96 g/m*3 9.9 C 0 km/h
38 01-10-2020 03:05:00 9.9 C 8.96 g/m*3 9.9 C 0 km/h
39 01-10-2020 03:10:00 9.9 C 8.96 g/m*3 9.9 C 0 km/h
40 01-10-2020 03:15:00 9.9 C 8.96 g/m*3 9.9 C 0 km/h
41 01-10-2020 03:20:00 9.9 C 8.96 g/m*3 9.9 C 0 km/h
42 01-10-2020 03:25:00 9.9 C 8.96 g/m*3 9.9 C 1.6 km/h
43 01-10-2020 03:30:00 9.9 C 8.96 g/m*3 9.9 C 0 km/h
44 01-10-2020 03:35:00 9.8 C 8.91 g/m*3 9.8 C 0 km/h
45 01-10-2020 03:40:00 9.8 C 8.91 g/m*3 9.8 C 0 km/h
46 01-10-2020 03:45:00 9.8 C 8.91 g/m*3 9.8 C 0 km/h
47 01-10-2020 03:50:00 9.8 C 8.91 g/m*3 9.8 C 0 km/h
48 01-10-2020 03:55:00 9.8 C 8.91 g/m*3 9.8 C 0 km/h
49 01-10-2020 04:00:00 9.8 C 8.91 g/m*3 9.8 C 0 km/h
50 01-10-2020 04:05:00 9.8 C 8.91 g/m*3 9.8 C 0 km/h
Sensor: Nr:Datum:Temp:Abs-Feuchte:Windchill:Wind:
Aussen-T/F 51 01-10-2020 04:10:00 9.8 C 8.91 g/m*3 9.8 C 0 km/h
52 01-10-2020 04:15:00 9.8 C 8.91 g/m*3 9.8 C 0 km/h
53 01-10-2020 04:20:00 9.9 C 8.96 g/m*3 9.9 C 0 km/h
54 01-10-2020 04:25:00 9.9 C 8.96 g/m*3 9.9 C 0 km/h
55 01-10-2020 04:30:00 9.9 C 8.96 g/m*3 9.9 C 0 km/h
56 01-10-2020 04:35:00 9.9 C 8.96 g/m*3 9.9 C 0 km/h
57 01-10-2020 04:40:00 9.9 C 9.06 g/m*3 9.9 C 0 km/h
58 01-10-2020 04:45:00 10 C 9.11 g/m*3 10 C 0 km/h
59 01-10-2020 04:50:00 10.1 C 9.17 g/m*3 10.1 C 0 km/h
60 01-10-2020 04:55:00 10.2 C 9.23 g/m*3 10.2 C 0 km/h
61 01-10-2020 05:00:00 10.3 C 9.29 g/m*3 10.3 C 0 km/h
62 01-10-2020 05:05:00 10.5 C 9.41 g/m*3 10.5 C 0 km/h
63 01-10-2020 05:10:00 10.6 C 9.47 g/m*3 10.6 C 0 km/h
64 01-10-2020 05:15:00 10.6 C 9.47 g/m*3 10.6 C 0 km/h
65 01-10-2020 05:20:00 10.6 C 9.47 g/m*3 10.6 C 0 km/h
66 01-10-2020 05:25:00 10.6 C 9.47 g/m*3 10.6 C 0 km/h
67 01-10-2020 05:30:00 10.5 C 9.41 g/m*3 10.5 C 0 km/h
68 01-10-2020 05:35:00 10.5 C 9.41 g/m*3 10.5 C 0 km/h
69 01-10-2020 05:40:00 10.5 C 9.41 g/m*3 10.5 C 0 km/h
70 01-10-2020 05:45:00 10.4 C 9.35 g/m*3 10.4 C 0 km/h
71 01-10-2020 05:50:00 10.4 C 9.35 g/m*3 10.4 C 0 km/h
72 01-10-2020 05:55:00 10.3 C 9.19 g/m*3 10.3 C 0 km/h
73 01-10-2020 06:00:00 10.1 C 9.08 g/m*3 10.1 C 0 km/h
74 01-10-2020 06:05:00 9.9 C 8.96 g/m*3 9.9 C 0 km/h
75 01-10-2020 06:10:00 9.8 C 8.91 g/m*3 9.8 C 0 km/h
Sensor: Nr:Datum:Temp:Abs-Feuchte:Windchill:Wind:
Aussen-T/F 76 01-10-2020 06:15:00 9.8 C 8.91 g/m*3 9.8 C 0 km/h
77 01-10-2020 06:20:00 9.8 C 9 g/m*3 9.8 C 0 km/h
78 01-10-2020 06:25:00 9.8 C 9 g/m*3 9.8 C 0 km/h
79 01-10-2020 06:30:00 9.8 C 9 g/m*3 9.8 C 3.2 km/h
80 01-10-2020 06:35:00 9.8 C 9 g/m*3 9.8 C 0 km/h
81 01-10-2020 06:40:00 9.8 C 9 g/m*3 9.8 C 0 km/h
82 01-10-2020 06:45:00 9.8 C 9 g/m*3 9.8 C 0 km/h
83 01-10-2020 06:50:00 9.7 C 8.94 g/m*3 9.7 C 0 km/h
84 01-10-2020 06:55:00 9.7 C 8.94 g/m*3 9.7 C 0 km/h
85 01-10-2020 07:00:00 9.7 C 8.94 g/m*3 9.7 C 0 km/h
86 01-10-2020 07:05:00 9.7 C 8.85 g/m*3 9.7 C 0 km/h
87 01-10-2020 07:10:00 9.5 C 8.74 g/m*3 9.5 C 0 km/h
88 01-10-2020 07:15:00 9.4 C 8.68 g/m*3 9.4 C 0 km/h
89 01-10-2020 07:20:00 9.4 C 8.68 g/m*3 9.4 C 0 km/h
90 01-10-2020 07:25:00 9.4 C 8.77 g/m*3 9.4 C 0 km/h
91 01-10-2020 07:30:00 9.4 C 8.77 g/m*3 9.4 C 0 km/h
92 01-10-2020 07:35:00 9.4 C 8.77 g/m*3 9.4 C 0 km/h
93 01-10-2020 07:40:00 9.5 C 8.83 g/m*3 9.5 C 0 km/h
94 01-10-2020 07:45:00 9.6 C 8.89 g/m*3 9.6 C 0 km/h
95 01-10-2020 07:50:00 9.6 C 8.89 g/m*3 9.6 C 0 km/h
96 01-10-2020 07:55:00 9.6 C 8.89 g/m*3 9.6 C 0 km/h
97 01-10-2020 08:00:00 9.7 C 8.94 g/m*3 9.7 C 0 km/h
98 01-10-2020 08:05:00 9.8 C 9 g/m*3 9.8 C 0 km/h
99 01-10-2020 08:10:00 9.8 C 9 g/m*3 9.8 C 0 km/h
100 01-10-2020 08:15:00 10 C 9.11 g/m*3 10 C 0 km/h
Sensor: Nr:Datum:Temp:Abs-Feuchte:Windchill:Wind:
Aussen-T/F 101 01-10-2020 08:20:00 10 C 9.11 g/m*3 10 C 0 km/h
102 01-10-2020 08:25:00 10.1 C 9.17 g/m*3 10.1 C 0 km/h
103 01-10-2020 08:30:00 10.1 C 9.17 g/m*3 10.1 C 0 km/h
104 01-10-2020 08:35:00 10.2 C 9.23 g/m*3 10.2 C 0 km/h
105 01-10-2020 08:40:00 10.2 C 9.23 g/m*3 10.2 C 0 km/h
106 01-10-2020 08:45:00 10.2 C 9.23 g/m*3 10.2 C 0 km/h
107 01-10-2020 08:50:00 10.3 C 9.29 g/m*3 10.3 C 0 km/h
108 01-10-2020 08:55:00 10.3 C 9.29 g/m*3 10.3 C 0 km/h
109 01-10-2020 09:00:00 10.3 C 9.29 g/m*3 10.3 C 0 km/h
110 01-10-2020 09:05:00 10.4 C 9.35 g/m*3 10.4 C 0 km/h
111 01-10-2020 09:10:00 10.4 C 9.35 g/m*3 10.4 C 0 km/h
112 01-10-2020 09:15:00 10.6 C 9.47 g/m*3 10.6 C 0 km/h
113 01-10-2020 09:20:00 10.7 C 9.53 g/m*3 10.7 C 0 km/h
114 01-10-2020 09:25:00 10.8 C 9.59 g/m*3 10.8 C 0 km/h
115 01-10-2020 09:30:00 10.9 C 9.65 g/m*3 10.9 C 0 km/h
116 01-10-2020 09:35:00 10.9 C 9.65 g/m*3 10.9 C 0 km/h
117 01-10-2020 09:40:00 11.1 C 9.77 g/m*3 11.1 C 0 km/h
118 01-10-2020 09:45:00 11.1 C 9.77 g/m*3 11.1 C 0 km/h
119 01-10-2020 09:50:00 11.2 C 9.83 g/m*3 11.2 C 0 km/h
120 01-10-2020 09:55:00 11.3 C 9.89 g/m*3 11.3 C 0 km/h
121 01-10-2020 10:00:00 11.4 C 9.96 g/m*3 11.4 C 0 km/h
122 01-10-2020 10:05:00 11.4 C 9.96 g/m*3 11.4 C 1.6 km/h
123 01-10-2020 10:10:00 11.5 C 10.02 g/m*3 11.5 C 0 km/h
124 01-10-2020 10:15:00 11.7 C 10.15 g/m*3 11.7 C 0 km/h
125 01-10-2020 10:20:00 11.9 C 10.38 g/m*3 11.9 C 0 km/h
Sensor: Nr:Datum:Temp:Abs-Feuchte:Windchill:Wind:
Aussen-T/F 126 01-10-2020 10:25:00 12.1 C 10.51 g/m*3 12.1 C 0 km/h
127 01-10-2020 10:30:00 12.3 C 10.64 g/m*3 12.3 C 0 km/h
128 01-10-2020 10:35:00 12.6 C 10.84 g/m*3 12.6 C 6.4 km/h
129 01-10-2020 10:40:00 12.7 C 10.91 g/m*3 12.7 C 6.4 km/h
130 01-10-2020 10:45:00 12.9 C 11.05 g/m*3 12.9 C 4.8 km/h
131 01-10-2020 10:50:00 13.2 C 11.25 g/m*3 13.2 C 11.3 km/h
132 01-10-2020 10:55:00 13.3 C 11.32 g/m*3 13.3 C 4.8 km/h
133 01-10-2020 11:00:00 13.4 C 11.28 g/m*3 13.4 C 1.6 km/h
134 01-10-2020 11:05:00 13.5 C 11.35 g/m*3 13.5 C 4.8 km/h
135 01-10-2020 11:10:00 13.5 C 11.23 g/m*3 13.5 C 3.2 km/h
136 01-10-2020 11:15:00 13.6 C 11.18 g/m*3 13.6 C 0 km/h
137 01-10-2020 11:20:00 13.7 C 11.25 g/m*3 13.7 C 4.8 km/h
138 01-10-2020 11:25:00 13.8 C 11.2 g/m*3 13.8 C 3.2 km/h
139 01-10-2020 11:30:00 14.1 C 11.41 g/m*3 14.1 C 3.2 km/h
140 01-10-2020 11:35:00 14.3 C 11.43 g/m*3 14.3 C 1.6 km/h
141 01-10-2020 11:40:00 14.5 C 11.44 g/m*3 14.5 C 4.8 km/h
142 01-10-2020 11:45:00 14.7 C 11.58 g/m*3 14.7 C 0 km/h
143 01-10-2020 11:50:00 14.8 C 11.53 g/m*3 14.8 C 3.2 km/h
144 01-10-2020 11:55:00 15.1 C 11.61 g/m*3 15.1 C 3.2 km/h
145 01-10-2020 12:00:00 15.2 C 11.55 g/m*3 15.2 C 6.4 km/h
146 01-10-2020 12:05:00 15.4 C 11.69 g/m*3 15.4 C 4.8 km/h
147 01-10-2020 12:10:00 15.6 C 11.7 g/m*3 15.6 C 1.6 km/h
148 01-10-2020 12:15:00 15.7 C 11.64 g/m*3 15.7 C 1.6 km/h
149 01-10-2020 12:20:00 15.8 C 11.58 g/m*3 15.8 C 4.8 km/h
150 01-10-2020 12:25:00 15.9 C 11.65 g/m*3 15.9 C 3.2 km/h
Sensor: Nr:Datum:Temp:Abs-Feuchte:Windchill:Wind:
Aussen-T/F 151 01-10-2020 12:30:00 16.1 C 11.65 g/m*3 16.1 C 6.4 km/h
152 01-10-2020 12:35:00 16.3 C 11.79 g/m*3 16.3 C 4.8 km/h
153 01-10-2020 12:40:00 16.4 C 11.86 g/m*3 16.4 C 3.2 km/h
154 01-10-2020 12:45:00 16.6 C 11.87 g/m*3 16.6 C 4.8 km/h
155 01-10-2020 12:50:00 16.7 C 11.8 g/m*3 16.7 C 6.4 km/h
156 01-10-2020 12:55:00 16.8 C 11.87 g/m*3 16.8 C 3.2 km/h
157 01-10-2020 13:00:00 16.8 C 11.87 g/m*3 16.8 C 4.8 km/h
158 01-10-2020 13:05:00 16.9 C 11.79 g/m*3 16.9 C 4.8 km/h
159 01-10-2020 13:10:00 16.9 C 11.65 g/m*3 16.9 C 9.7 km/h
160 01-10-2020 13:15:00 16.9 C 11.65 g/m*3 16.9 C 6.4 km/h
161 01-10-2020 13:20:00 16.9 C 11.65 g/m*3 16.9 C 8.1 km/h
162 01-10-2020 13:25:00 16.9 C 11.65 g/m*3 16.9 C 4.8 km/h
163 01-10-2020 13:30:00 16.9 C 11.65 g/m*3 16.9 C 1.6 km/h
164 01-10-2020 13:35:00 16.9 C 11.65 g/m*3 16.9 C 3.2 km/h
165 01-10-2020 13:40:00 16.9 C 11.51 g/m*3 16.9 C 3.2 km/h
166 01-10-2020 13:45:00 17.1 C 11.79 g/m*3 17.1 C 4.8 km/h
167 01-10-2020 13:50:00 17.2 C 11.72 g/m*3 17.2 C 6.4 km/h
168 01-10-2020 13:55:00 17.2 C 11.57 g/m*3 17.2 C 6.4 km/h
169 01-10-2020 14:00:00 17.2 C 11.42 g/m*3 17.2 C 6.4 km/h
170 01-10-2020 14:05:00 17.2 C 11.72 g/m*3 17.2 C 0 km/h
171 01-10-2020 14:10:00 17.2 C 11.72 g/m*3 17.2 C 1.6 km/h
172 01-10-2020 14:15:00 17.1 C 11.65 g/m*3 17.1 C 1.6 km/h
173 01-10-2020 14:20:00 17 C 11.43 g/m*3 17 C 3.2 km/h
174 01-10-2020 14:25:00 16.9 C 11.51 g/m*3 16.9 C 1.6 km/h
175 01-10-2020 14:30:00 16.8 C 11.44 g/m*3 16.8 C 0 km/h
Sensor: Nr:Datum:Temp:Abs-Feuchte:Windchill:Wind:
Aussen-T/F 176 01-10-2020 14:35:00 16.8 C 11.44 g/m*3 16.8 C 1.6 km/h
177 01-10-2020 14:40:00 16.7 C 11.37 g/m*3 16.7 C 3.2 km/h
178 01-10-2020 14:45:00 16.7 C 11.37 g/m*3 16.7 C 3.2 km/h
179 01-10-2020 14:50:00 16.6 C 11.44 g/m*3 16.6 C 1.6 km/h
180 01-10-2020 14:55:00 16.7 C 11.8 g/m*3 16.7 C 1.6 km/h
181 01-10-2020 15:00:00 16.6 C 12.01 g/m*3 16.6 C 4.8 km/h
182 01-10-2020 15:05:00 16.6 C 12.15 g/m*3 16.6 C 0 km/h
183 01-10-2020 15:10:00 16.4 C 12 g/m*3 16.4 C 1.6 km/h
184 01-10-2020 15:15:00 16.3 C 12.07 g/m*3 16.3 C 0 km/h
185 01-10-2020 15:20:00 16.2 C 12.14 g/m*3 16.2 C 0 km/h
186 01-10-2020 15:25:00 15.9 C 11.92 g/m*3 15.9 C 1.6 km/h
187 01-10-2020 15:30:00 15.7 C 11.77 g/m*3 15.7 C 6.4 km/h
188 01-10-2020 15:35:00 15.5 C 11.63 g/m*3 15.5 C 3.2 km/h
189 01-10-2020 15:40:00 15.4 C 11.69 g/m*3 15.4 C 0 km/h
190 01-10-2020 15:45:00 15.4 C 11.82 g/m*3 15.4 C 1.6 km/h
191 01-10-2020 15:50:00 15.4 C 11.82 g/m*3 15.4 C 0 km/h
192 01-10-2020 15:55:00 15.4 C 11.96 g/m*3 15.4 C 0 km/h
193 01-10-2020 16:00:00 15.4 C 11.96 g/m*3 15.4 C 0 km/h
194 01-10-2020 16:05:00 15.4 C 11.96 g/m*3 15.4 C 3.2 km/h
195 01-10-2020 16:10:00 15.3 C 11.88 g/m*3 15.3 C 1.6 km/h
196 01-10-2020 16:15:00 15.3 C 11.88 g/m*3 15.3 C 3.2 km/h
197 01-10-2020 16:20:00 15.3 C 11.88 g/m*3 15.3 C 1.6 km/h
198 01-10-2020 16:25:00 15.3 C 11.88 g/m*3 15.3 C 0 km/h
199 01-10-2020 16:30:00 15.2 C 11.81 g/m*3 15.2 C 1.6 km/h
200 01-10-2020 16:35:00 15.3 C 11.88 g/m*3 15.3 C 0 km/h
Sensor: Nr:Datum:Temp:Abs-Feuchte:Windchill:Wind:
Aussen-T/F 201 01-10-2020 16:40:00 15.2 C 11.81 g/m*3 15.2 C 1.6 km/h
202 01-10-2020 16:45:00 15.2 C 11.94 g/m*3 15.2 C 0 km/h
203 01-10-2020 16:50:00 15.2 C 11.81 g/m*3 15.2 C 3.2 km/h
204 01-10-2020 16:55:00 15.2 C 11.94 g/m*3 15.2 C 0 km/h
205 01-10-2020 17:00:00 15.2 C 11.94 g/m*3 15.2 C 0 km/h
206 01-10-2020 17:05:00 15.1 C 11.87 g/m*3 15.1 C 0 km/h
207 01-10-2020 17:10:00 15.1 C 12 g/m*3 15.1 C 0 km/h
208 01-10-2020 17:15:00 15.1 C 11.87 g/m*3 15.1 C 0 km/h
209 01-10-2020 17:20:00 15.1 C 12 g/m*3 15.1 C 0 km/h
210 01-10-2020 17:25:00 15.2 C 12.07 g/m*3 15.2 C 0 km/h
211 01-10-2020 17:30:00 15.2 C 12.07 g/m*3 15.2 C 0 km/h
212 01-10-2020 17:35:00 15.3 C 12.14 g/m*3 15.3 C 0 km/h
213 01-10-2020 17:40:00 15.3 C 12.14 g/m*3 15.3 C 1.6 km/h
214 01-10-2020 17:45:00 15.4 C 12.22 g/m*3 15.4 C 1.6 km/h
215 01-10-2020 17:50:00 15.4 C 12.22 g/m*3 15.4 C 4.8 km/h
216 01-10-2020 17:55:00 15.4 C 12.22 g/m*3 15.4 C 0 km/h
217 01-10-2020 18:00:00 15.6 C 12.5 g/m*3 15.6 C 3.2 km/h
218 01-10-2020 18:05:00 15.8 C 12.65 g/m*3 15.8 C 4.8 km/h
219 01-10-2020 18:10:00 16.3 C 13.04 g/m*3 16.3 C 0 km/h
220 01-10-2020 18:15:00 16.5 C 12.78 g/m*3 16.5 C 3.2 km/h
221 01-10-2020 18:20:00 16.5 C 12.64 g/m*3 16.5 C 1.6 km/h
222 01-10-2020 18:25:00 16.4 C 12.42 g/m*3 16.4 C 0 km/h
223 01-10-2020 18:30:00 16.4 C 12.42 g/m*3 16.4 C 0 km/h
224 01-10-2020 18:35:00 16.3 C 12.49 g/m*3 16.3 C 1.6 km/h
225 01-10-2020 18:40:00 16.1 C 12.2 g/m*3 16.1 C 3.2 km/h
Sensor: Nr:Datum:Temp:Abs-Feuchte:Windchill:Wind:
Aussen-T/F 226 01-10-2020 18:45:00 15.8 C 11.98 g/m*3 15.8 C 4.8 km/h
227 01-10-2020 18:50:00 15.6 C 11.84 g/m*3 15.6 C 4.8 km/h
228 01-10-2020 18:55:00 15.3 C 11.62 g/m*3 15.3 C 8.1 km/h
229 01-10-2020 19:00:00 15 C 11.41 g/m*3 15 C 4.8 km/h
230 01-10-2020 19:05:00 14.7 C 11.33 g/m*3 14.7 C 6.4 km/h
231 01-10-2020 19:10:00 14.4 C 11.13 g/m*3 14.4 C 4.8 km/h
232 01-10-2020 19:15:00 14.2 C 10.99 g/m*3 14.2 C 3.2 km/h
233 01-10-2020 19:20:00 14 C 10.86 g/m*3 14 C 0 km/h
234 01-10-2020 19:25:00 13.8 C 10.72 g/m*3 13.8 C 3.2 km/h
235 01-10-2020 19:30:00 13.6 C 10.59 g/m*3 13.6 C 3.2 km/h
236 01-10-2020 19:35:00 13.3 C 10.51 g/m*3 13.3 C 4.8 km/h
237 01-10-2020 19:40:00 13.2 C 10.45 g/m*3 13.2 C 4.8 km/h
238 01-10-2020 19:45:00 13.1 C 10.5 g/m*3 13.1 C 4.8 km/h
239 01-10-2020 19:50:00 12.9 C 10.37 g/m*3 12.9 C 6.4 km/h
240 01-10-2020 19:55:00 12.8 C 10.42 g/m*3 12.8 C 4.8 km/h
241 01-10-2020 20:00:00 12.7 C 10.24 g/m*3 12.7 C 6.4 km/h
242 01-10-2020 20:05:00 12.6 C 10.29 g/m*3 12.6 C 3.2 km/h
243 01-10-2020 20:10:00 12.5 C 10.22 g/m*3 12.5 C 4.8 km/h
244 01-10-2020 20:15:00 12.4 C 10.16 g/m*3 12.4 C 4.8 km/h
245 01-10-2020 20:20:00 12.4 C 10.16 g/m*3 12.4 C 4.8 km/h
246 01-10-2020 20:25:00 12.3 C 10.21 g/m*3 12.3 C 4.8 km/h
247 01-10-2020 20:30:00 12.2 C 10.04 g/m*3 12.2 C 3.2 km/h
248 01-10-2020 20:35:00 12.2 C 10.14 g/m*3 12.2 C 3.2 km/h
249 01-10-2020 20:40:00 12.2 C 10.14 g/m*3 12.2 C 1.6 km/h
250 01-10-2020 20:45:00 12.2 C 10.14 g/m*3 12.2 C 3.2 km/h
Sensor: Nr:Datum:Temp:Abs-Feuchte:Windchill:Wind:
Aussen-T/F 251 01-10-2020 20:50:00 12.2 C 10.14 g/m*3 12.2 C 0 km/h
252 01-10-2020 20:55:00 12.2 C 10.25 g/m*3 12.2 C 1.6 km/h
253 01-10-2020 21:00:00 12.3 C 10.32 g/m*3 12.3 C 3.2 km/h
254 01-10-2020 21:05:00 12.3 C 10.32 g/m*3 12.3 C 1.6 km/h
255 01-10-2020 21:10:00 12.4 C 10.38 g/m*3 12.4 C 0 km/h
256 01-10-2020 21:15:00 12.4 C 10.38 g/m*3 12.4 C 1.6 km/h
257 01-10-2020 21:20:00 12.7 C 10.69 g/m*3 12.7 C 17.7 km/h
258 01-10-2020 21:25:00 12.6 C 10.51 g/m*3 12.6 C 8.1 km/h
259 01-10-2020 21:30:00 12.4 C 10.38 g/m*3 12.4 C 6.4 km/h
260 01-10-2020 21:35:00 12.3 C 10.32 g/m*3 12.3 C 4.8 km/h
261 01-10-2020 21:40:00 12.2 C 10.25 g/m*3 12.2 C 1.6 km/h
262 01-10-2020 21:45:00 12.2 C 10.25 g/m*3 12.2 C 3.2 km/h
263 01-10-2020 21:50:00 12.1 C 10.19 g/m*3 12.1 C 0 km/h
264 01-10-2020 21:55:00 12.1 C 10.19 g/m*3 12.1 C 0 km/h
265 01-10-2020 22:00:00 11.9 C 10.06 g/m*3 11.9 C 0 km/h
266 01-10-2020 22:05:00 11.9 C 10.06 g/m*3 11.9 C 1.6 km/h
267 01-10-2020 22:10:00 11.8 C 10 g/m*3 11.8 C 3.2 km/h
268 01-10-2020 22:15:00 11.8 C 10 g/m*3 11.8 C 0 km/h
269 01-10-2020 22:20:00 11.7 C 9.94 g/m*3 11.7 C 0 km/h
270 01-10-2020 22:25:00 11.6 C 9.87 g/m*3 11.6 C 3.2 km/h
271 01-10-2020 22:30:00 11.4 C 9.75 g/m*3 11.4 C 0 km/h
272 01-10-2020 22:35:00 11.3 C 9.69 g/m*3 11.3 C 0 km/h
273 01-10-2020 22:40:00 11.2 C 9.63 g/m*3 11.2 C 0 km/h
274 01-10-2020 22:45:00 11.1 C 9.57 g/m*3 11.1 C 1.6 km/h
275 01-10-2020 22:50:00 11.1 C 9.57 g/m*3 11.1 C 6.4 km/h
Sensor: Nr:Datum:Temp:Abs-Feuchte:Windchill:Wind:
Aussen-T/F 276 01-10-2020 22:55:00 10.9 C 9.45 g/m*3 10.9 C 3.2 km/h
277 01-10-2020 23:00:00 10.9 C 9.45 g/m*3 10.9 C 3.2 km/h
278 01-10-2020 23:05:00 10.8 C 9.39 g/m*3 10.8 C 4.8 km/h
279 01-10-2020 23:10:00 10.8 C 9.39 g/m*3 9.64 C 9.7 km/h
280 01-10-2020 23:15:00 10.8 C 9.49 g/m*3 9.93 C 8.1 km/h
281 01-10-2020 23:20:00 10.8 C 9.49 g/m*3 10.29 C 6.4 km/h
282 01-10-2020 23:25:00 10.8 C 9.49 g/m*3 10.8 C 4.8 km/h
283 01-10-2020 23:30:00 10.8 C 9.49 g/m*3 10.8 C 4.8 km/h
284 01-10-2020 23:35:00 10.8 C 9.49 g/m*3 10.8 C 3.2 km/h
285 01-10-2020 23:40:00 10.8 C 9.49 g/m*3 10.8 C 0 km/h
286 01-10-2020 23:45:00 10.8 C 9.49 g/m*3 10.8 C 1.6 km/h
287 01-10-2020 23:50:00 10.9 C 9.55 g/m*3 10.9 C 0 km/h
288 01-10-2020 23:55:00 10.9 C 9.55 g/m*3 10.41 C 6.4 km/h
289 02-10-2020 00:00:00 11 C 9.61 g/m*3 10.52 C 6.4 km/h
290 02-10-2020 00:05:00 11 C 9.61 g/m*3 11 C 4.8 km/h
291 02-10-2020 00:10:00 10.9 C 9.55 g/m*3 10.9 C 3.2 km/h
292 02-10-2020 00:15:00 10.8 C 9.49 g/m*3 10.8 C 0 km/h
293 02-10-2020 00:20:00 10.7 C 9.43 g/m*3 10.7 C 0 km/h
294 02-10-2020 00:25:00 10.6 C 9.37 g/m*3 10.6 C 3.2 km/h
295 02-10-2020 00:30:00 10.4 C 9.16 g/m*3 10.4 C 4.8 km/h
296 02-10-2020 00:35:00 10.2 C 9.04 g/m*3 10.2 C 3.2 km/h
297 02-10-2020 00:40:00 10.2 C 9.14 g/m*3 10.2 C 0 km/h
298 02-10-2020 00:45:00 10.1 C 9.08 g/m*3 10.1 C 0 km/h
299 02-10-2020 00:50:00 10.1 C 9.08 g/m*3 10.1 C 0 km/h
300 02-10-2020 00:55:00 10 C 9.02 g/m*3 10 C 0 km/h
Sensor: Nr:Datum:Temp:Abs-Feuchte:Windchill:Wind:
Aussen-T/F 301 02-10-2020 01:00:00 9.9 C 8.96 g/m*3 9.9 C 0 km/h
302 02-10-2020 01:05:00 9.9 C 8.96 g/m*3 9.9 C 0 km/h
303 02-10-2020 01:10:00 9.9 C 8.96 g/m*3 9.9 C 0 km/h
304 02-10-2020 01:15:00 10 C 9.02 g/m*3 10 C 0 km/h
305 02-10-2020 01:20:00 10 C 9.02 g/m*3 10 C 0 km/h
306 02-10-2020 01:25:00 9.9 C 8.96 g/m*3 9.9 C 0 km/h
307 02-10-2020 01:30:00 9.9 C 8.96 g/m*3 9.9 C 0 km/h
308 02-10-2020 01:35:00 9.9 C 8.96 g/m*3 9.9 C 0 km/h
309 02-10-2020 01:40:00 9.8 C 8.91 g/m*3 9.8 C 0 km/h
310 02-10-2020 01:45:00 9.8 C 8.91 g/m*3 9.8 C 0 km/h
311 02-10-2020 01:50:00 9.7 C 8.85 g/m*3 9.7 C 0 km/h
312 02-10-2020 01:55:00 9.6 C 8.79 g/m*3 9.6 C 0 km/h
313 02-10-2020 02:00:00 9.6 C 8.79 g/m*3 9.6 C 0 km/h
314 02-10-2020 02:05:00 9.5 C 8.74 g/m*3 9.5 C 0 km/h
315 02-10-2020 02:10:00 9.4 C 8.68 g/m*3 9.4 C 0 km/h
316 02-10-2020 02:15:00 9.3 C 8.63 g/m*3 9.3 C 0 km/h
317 02-10-2020 02:20:00 9.3 C 8.63 g/m*3 9.3 C 0 km/h
318 02-10-2020 02:25:00 9.2 C 8.57 g/m*3 9.2 C 0 km/h
319 02-10-2020 02:30:00 9.2 C 8.57 g/m*3 9.2 C 0 km/h
320 02-10-2020 02:35:00 9.1 C 8.52 g/m*3 9.1 C 0 km/h
321 02-10-2020 02:40:00 9.1 C 8.52 g/m*3 9.1 C 0 km/h
322 02-10-2020 02:45:00 9 C 8.46 g/m*3 9 C 0 km/h
323 02-10-2020 02:50:00 9 C 8.46 g/m*3 9 C 0 km/h
324 02-10-2020 02:55:00 8.9 C 8.41 g/m*3 8.9 C 0 km/h
325 02-10-2020 03:00:00 9 C 8.46 g/m*3 9 C 0 km/h
Sensor: Nr:Datum:Temp:Abs-Feuchte:Windchill:Wind:
Aussen-T/F 326 02-10-2020 03:05:00 9.1 C 8.52 g/m*3 9.1 C 0 km/h
327 02-10-2020 03:10:00 8.9 C 8.41 g/m*3 8.9 C 0 km/h
328 02-10-2020 03:15:00 8.9 C 8.41 g/m*3 8.9 C 0 km/h
329 02-10-2020 03:20:00 8.8 C 8.36 g/m*3 8.8 C 0 km/h
330 02-10-2020 03:25:00 8.7 C 8.3 g/m*3 8.7 C 0 km/h
331 02-10-2020 03:30:00 8.6 C 8.25 g/m*3 8.6 C 0 km/h
332 02-10-2020 03:35:00 8.6 C 8.25 g/m*3 8.6 C 0 km/h
333 02-10-2020 03:40:00 8.5 C 8.2 g/m*3 8.5 C 0 km/h
334 02-10-2020 03:45:00 8.4 C 8.14 g/m*3 8.4 C 0 km/h
335 02-10-2020 03:50:00 8.3 C 8.09 g/m*3 8.3 C 0 km/h
336 02-10-2020 03:55:00 8.3 C 8.09 g/m*3 8.3 C 0 km/h
337 02-10-2020 04:00:00 8.2 C 8.04 g/m*3 8.2 C 0 km/h
338 02-10-2020 04:05:00 8.2 C 8.04 g/m*3 8.2 C 0 km/h
339 02-10-2020 04:10:00 8.1 C 7.99 g/m*3 8.1 C 0 km/h
340 02-10-2020 04:15:00 8.1 C 7.99 g/m*3 8.1 C 0 km/h
341 02-10-2020 04:20:00 8 C 7.94 g/m*3 8 C 0 km/h
342 02-10-2020 04:25:00 8.1 C 7.99 g/m*3 8.1 C 0 km/h
343 02-10-2020 04:30:00 8 C 7.94 g/m*3 8 C 0 km/h
344 02-10-2020 04:35:00 7.9 C 7.89 g/m*3 7.9 C 0 km/h
345 02-10-2020 04:40:00 7.9 C 7.89 g/m*3 7.9 C 0 km/h
346 02-10-2020 04:45:00 7.9 C 7.89 g/m*3 7.9 C 0 km/h
347 02-10-2020 04:50:00 7.8 C 7.83 g/m*3 7.8 C 0 km/h
348 02-10-2020 04:55:00 7.8 C 7.83 g/m*3 7.8 C 0 km/h
349 02-10-2020 05:00:00 7.8 C 7.83 g/m*3 7.8 C 0 km/h
350 02-10-2020 05:05:00 7.8 C 7.83 g/m*3 7.8 C 0 km/h
Sensor: Nr:Datum:Temp:Abs-Feuchte:Windchill:Wind:
Aussen-T/F 351 02-10-2020 05:10:00 7.8 C 7.83 g/m*3 7.8 C 0 km/h
352 02-10-2020 05:15:00 7.8 C 7.83 g/m*3 7.8 C 0 km/h
353 02-10-2020 05:20:00 7.8 C 7.83 g/m*3 7.8 C 0 km/h
354 02-10-2020 05:25:00 7.8 C 7.83 g/m*3 7.8 C 0 km/h
355 02-10-2020 05:30:00 7.8 C 7.83 g/m*3 7.8 C 0 km/h
356 02-10-2020 05:35:00 7.8 C 7.83 g/m*3 7.8 C 0 km/h
357 02-10-2020 05:40:00 7.8 C 7.92 g/m*3 7.8 C 0 km/h
358 02-10-2020 05:45:00 7.8 C 7.92 g/m*3 7.8 C 0 km/h
359 02-10-2020 05:50:00 7.8 C 7.92 g/m*3 7.8 C 0 km/h
360 02-10-2020 05:55:00 7.8 C 7.92 g/m*3 7.8 C 0 km/h
361 02-10-2020 06:00:00 7.9 C 7.97 g/m*3 7.9 C 0 km/h
362 02-10-2020 06:05:00 7.9 C 7.97 g/m*3 7.9 C 0 km/h
363 02-10-2020 06:10:00 7.9 C 7.97 g/m*3 7.9 C 0 km/h
364 02-10-2020 06:15:00 7.9 C 7.97 g/m*3 7.9 C 0 km/h
365 02-10-2020 06:20:00 7.9 C 7.97 g/m*3 7.9 C 0 km/h
366 02-10-2020 06:25:00 7.9 C 7.97 g/m*3 7.9 C 0 km/h
367 02-10-2020 06:30:00 8 C 8.02 g/m*3 8 C 0 km/h
368 02-10-2020 06:35:00 8.1 C 8.07 g/m*3 8.1 C 0 km/h
369 02-10-2020 06:40:00 8.3 C 8.18 g/m*3 8.3 C 0 km/h
370 02-10-2020 06:45:00 8.5 C 8.28 g/m*3 8.5 C 0 km/h
371 02-10-2020 06:50:00 8.6 C 8.34 g/m*3 8.6 C 0 km/h
372 02-10-2020 06:55:00 8.7 C 8.39 g/m*3 8.7 C 0 km/h
373 02-10-2020 07:00:00 8.7 C 8.39 g/m*3 8.7 C 0 km/h
374 02-10-2020 07:05:00 8.7 C 8.39 g/m*3 8.7 C 0 km/h
375 02-10-2020 07:10:00 8.7 C 8.39 g/m*3 8.7 C 0 km/h
Sensor: Nr:Datum:Temp:Abs-Feuchte:Windchill:Wind:
Aussen-T/F 376 02-10-2020 07:15:00 8.6 C 8.34 g/m*3 8.6 C 0 km/h
377 02-10-2020 07:20:00 8.5 C 8.28 g/m*3 8.5 C 0 km/h
378 02-10-2020 07:25:00 8.3 C 8.18 g/m*3 8.3 C 0 km/h
379 02-10-2020 07:30:00 8.3 C 8.18 g/m*3 8.3 C 0 km/h
380 02-10-2020 07:35:00 8.3 C 8.18 g/m*3 8.3 C 0 km/h
381 02-10-2020 07:40:00 8.3 C 8.18 g/m*3 8.3 C 0 km/h
382 02-10-2020 07:45:00 8.3 C 8.18 g/m*3 8.3 C 0 km/h
383 02-10-2020 07:50:00 8.4 C 8.23 g/m*3 8.4 C 0 km/h
384 02-10-2020 07:55:00 8.5 C 8.28 g/m*3 8.5 C 0 km/h
385 02-10-2020 08:00:00 8.6 C 8.34 g/m*3 8.6 C 0 km/h
386 02-10-2020 08:05:00 8.8 C 8.44 g/m*3 8.8 C 0 km/h
387 02-10-2020 08:10:00 8.9 C 8.5 g/m*3 8.9 C 0 km/h
388 02-10-2020 08:15:00 8.9 C 8.5 g/m*3 8.9 C 0 km/h
389 02-10-2020 08:20:00 9.1 C 8.61 g/m*3 9.1 C 0 km/h
390 02-10-2020 08:25:00 9.2 C 8.66 g/m*3 9.2 C 0 km/h
391 02-10-2020 08:30:00 9.2 C 8.66 g/m*3 9.2 C 0 km/h
392 02-10-2020 08:35:00 9.3 C 8.72 g/m*3 9.3 C 0 km/h
393 02-10-2020 08:40:00 9.4 C 8.77 g/m*3 9.4 C 0 km/h
394 02-10-2020 08:45:00 9.6 C 8.89 g/m*3 9.6 C 0 km/h
395 02-10-2020 08:50:00 9.6 C 8.89 g/m*3 9.6 C 0 km/h
396 02-10-2020 08:55:00 9.7 C 8.94 g/m*3 9.7 C 0 km/h
397 02-10-2020 09:00:00 9.8 C 9 g/m*3 9.8 C 0 km/h
398 02-10-2020 09:05:00 9.9 C 9.15 g/m*3 9.9 C 1.6 km/h
399 02-10-2020 09:10:00 10.1 C 9.17 g/m*3 10.1 C 3.2 km/h
400 02-10-2020 09:15:00 10.3 C 9.39 g/m*3 10.3 C 4.8 km/h
Sensor: Nr:Datum:Temp:Abs-Feuchte:Windchill:Wind:
Aussen-T/F 401 02-10-2020 09:20:00 10.4 C 9.44 g/m*3 9.83 C 6.4 km/h
402 02-10-2020 09:25:00 10.5 C 9.41 g/m*3 10.5 C 3.2 km/h
403 02-10-2020 09:30:00 10.6 C 9.57 g/m*3 8.92 C 12.9 km/h
404 02-10-2020 09:35:00 10.7 C 9.63 g/m*3 10.7 C 4.8 km/h
405 02-10-2020 09:40:00 10.8 C 9.59 g/m*3 10.8 C 1.6 km/h
406 02-10-2020 09:45:00 11.1 C 9.87 g/m*3 11.1 C 0 km/h
407 02-10-2020 09:50:00 11.2 C 9.93 g/m*3 11.2 C 0 km/h
408 02-10-2020 09:55:00 11.4 C 10.06 g/m*3 11.4 C 0 km/h
409 02-10-2020 10:00:00 11.6 C 10.19 g/m*3 11.6 C 3.2 km/h
410 02-10-2020 10:05:00 11.6 C 10.08 g/m*3 11.6 C 1.6 km/h
411 02-10-2020 10:10:00 11.6 C 10.19 g/m*3 11.6 C 3.2 km/h
412 02-10-2020 10:15:00 11.8 C 10.21 g/m*3 11.8 C 1.6 km/h
413 02-10-2020 10:20:00 11.8 C 10.21 g/m*3 11.8 C 1.6 km/h
414 02-10-2020 10:25:00 11.8 C 10.31 g/m*3 11.8 C 1.6 km/h
415 02-10-2020 10:30:00 12.1 C 10.51 g/m*3 12.1 C 1.6 km/h
416 02-10-2020 10:35:00 12.2 C 10.47 g/m*3 12.2 C 1.6 km/h
417 02-10-2020 10:40:00 12.3 C 10.64 g/m*3 12.3 C 1.6 km/h
418 02-10-2020 10:45:00 12.3 C 10.53 g/m*3 12.3 C 0 km/h
419 02-10-2020 10:50:00 12.3 C 10.53 g/m*3 12.3 C 0 km/h
420 02-10-2020 10:55:00 12.3 C 10.53 g/m*3 12.3 C 0 km/h
421 02-10-2020 11:00:00 12.3 C 10.53 g/m*3 12.3 C 0 km/h
422 02-10-2020 11:05:00 12.3 C 10.53 g/m*3 12.3 C 0 km/h
423 02-10-2020 11:10:00 12.3 C 10.53 g/m*3 12.3 C 0 km/h
424 02-10-2020 11:15:00 12.3 C 10.53 g/m*3 12.3 C 0 km/h
425 02-10-2020 11:20:00 12.4 C 10.6 g/m*3 12.4 C 0 km/h
Sensor: Nr:Datum:Temp:Abs-Feuchte:Windchill:Wind:
Aussen-T/F 426 02-10-2020 11:25:00 12.4 C 10.6 g/m*3 12.4 C 1.6 km/h
427 02-10-2020 11:30:00 12.6 C 10.73 g/m*3 12.6 C 4.8 km/h
428 02-10-2020 11:35:00 12.6 C 10.73 g/m*3 12.6 C 4.8 km/h
429 02-10-2020 11:40:00 12.6 C 10.73 g/m*3 12.6 C 6.4 km/h
430 02-10-2020 11:45:00 12.7 C 10.8 g/m*3 12.7 C 6.4 km/h
431 02-10-2020 11:50:00 12.9 C 10.93 g/m*3 12.9 C 6.4 km/h
432 02-10-2020 11:55:00 13.1 C 11.07 g/m*3 13.1 C 9.7 km/h
433 02-10-2020 12:00:00 13.1 C 10.95 g/m*3 13.1 C 11.3 km/h
434 02-10-2020 12:05:00 13.2 C 10.91 g/m*3 13.2 C 12.9 km/h
435 02-10-2020 12:10:00 13.4 C 11.04 g/m*3 13.4 C 8.1 km/h
436 02-10-2020 12:15:00 13.6 C 11.06 g/m*3 13.6 C 14.5 km/h
437 02-10-2020 12:20:00 13.8 C 11.08 g/m*3 13.8 C 14.5 km/h
438 02-10-2020 12:25:00 14 C 11.22 g/m*3 14 C 12.9 km/h
439 02-10-2020 12:30:00 14.3 C 11.3 g/m*3 14.3 C 8.1 km/h
440 02-10-2020 12:35:00 14.5 C 11.44 g/m*3 14.5 C 6.4 km/h
441 02-10-2020 12:40:00 14.7 C 11.46 g/m*3 14.7 C 8.1 km/h
442 02-10-2020 12:45:00 14.9 C 11.34 g/m*3 14.9 C 11.3 km/h
443 02-10-2020 12:50:00 15.1 C 11.35 g/m*3 15.1 C 8.1 km/h
444 02-10-2020 12:55:00 15.3 C 11.36 g/m*3 15.3 C 8.1 km/h
445 02-10-2020 13:00:00 15.4 C 11.43 g/m*3 15.4 C 11.3 km/h
446 02-10-2020 13:05:00 15.5 C 11.37 g/m*3 15.5 C 8.1 km/h
447 02-10-2020 13:10:00 15.7 C 11.51 g/m*3 15.7 C 8.1 km/h
448 02-10-2020 13:15:00 15.8 C 11.44 g/m*3 15.8 C 9.7 km/h
449 02-10-2020 13:20:00 15.9 C 11.38 g/m*3 15.9 C 11.3 km/h
450 02-10-2020 13:25:00 16.1 C 11.65 g/m*3 16.1 C 9.7 km/h
Sensor: Nr:Datum:Temp:Abs-Feuchte:Windchill:Wind:
Aussen-T/F 451 02-10-2020 13:30:00 16.2 C 11.58 g/m*3 16.2 C 8.1 km/h
452 02-10-2020 13:35:00 16.3 C 11.52 g/m*3 16.3 C 6.4 km/h
453 02-10-2020 13:40:00 16.4 C 11.86 g/m*3 16.4 C 4.8 km/h
454 02-10-2020 13:45:00 16.6 C 11.72 g/m*3 16.6 C 6.4 km/h
455 02-10-2020 13:50:00 16.7 C 12.08 g/m*3 16.7 C 1.6 km/h
456 02-10-2020 13:55:00 16.8 C 11.87 g/m*3 16.8 C 0 km/h
457 02-10-2020 14:00:00 16.9 C 11.94 g/m*3 16.9 C 3.2 km/h
458 02-10-2020 14:05:00 17.1 C 11.94 g/m*3 17.1 C 3.2 km/h
459 02-10-2020 14:10:00 17.2 C 11.86 g/m*3 17.2 C 4.8 km/h
460 02-10-2020 14:15:00 17.3 C 11.93 g/m*3 17.3 C 6.4 km/h
461 02-10-2020 14:20:00 17.4 C 12 g/m*3 17.4 C 4.8 km/h
462 02-10-2020 14:25:00 17.6 C 11.85 g/m*3 17.6 C 9.7 km/h
463 02-10-2020 14:30:00 17.8 C 12.45 g/m*3 17.8 C 8.1 km/h
464 02-10-2020 14:35:00 17.9 C 12.06 g/m*3 17.9 C 8.1 km/h
465 02-10-2020 14:40:00 18.1 C 11.9 g/m*3 18.1 C 14.5 km/h
466 02-10-2020 14:45:00 18.1 C 12.21 g/m*3 18.1 C 14.5 km/h
467 02-10-2020 14:50:00 18.2 C 11.81 g/m*3 18.2 C 14.5 km/h
468 02-10-2020 14:55:00 18.2 C 12.12 g/m*3 18.2 C 8.1 km/h
469 02-10-2020 15:00:00 18.2 C 12.12 g/m*3 18.2 C 4.8 km/h
470 02-10-2020 15:05:00 18.2 C 11.81 g/m*3 18.2 C 4.8 km/h
471 02-10-2020 15:10:00 18.3 C 12.04 g/m*3 18.3 C 4.8 km/h
472 02-10-2020 15:15:00 18.4 C 12.43 g/m*3 18.4 C 3.2 km/h
473 02-10-2020 15:20:00 18.4 C 12.11 g/m*3 18.4 C 3.2 km/h
474 02-10-2020 15:25:00 18.4 C 12.27 g/m*3 18.4 C 3.2 km/h
475 02-10-2020 15:30:00 18.4 C 12.27 g/m*3 18.4 C 6.4 km/h
Sensor: Nr:Datum:Temp:Abs-Feuchte:Windchill:Wind:
Aussen-T/F 476 02-10-2020 15:35:00 18.4 C 11.95 g/m*3 18.4 C 6.4 km/h
477 02-10-2020 15:40:00 18.6 C 12.73 g/m*3 18.6 C 4.8 km/h
478 02-10-2020 15:45:00 18.6 C 12.41 g/m*3 18.6 C 1.6 km/h
479 02-10-2020 15:50:00 18.7 C 12.97 g/m*3 18.7 C 8.1 km/h
480 02-10-2020 15:55:00 18.7 C 12.65 g/m*3 18.7 C 9.7 km/h
481 02-10-2020 16:00:00 18.8 C 12.88 g/m*3 18.8 C 3.2 km/h
482 02-10-2020 16:05:00 18.8 C 12.72 g/m*3 18.8 C 1.6 km/h
483 02-10-2020 16:10:00 18.8 C 12.56 g/m*3 18.8 C 0 km/h
484 02-10-2020 16:15:00 18.9 C 12.8 g/m*3 18.9 C 3.2 km/h
485 02-10-2020 16:20:00 18.8 C 12.08 g/m*3 18.8 C 9.7 km/h
486 02-10-2020 16:25:00 18.8 C 12.24 g/m*3 18.8 C 8.1 km/h
487 02-10-2020 16:30:00 18.8 C 11.76 g/m*3 18.8 C 14.5 km/h
488 02-10-2020 16:35:00 18.9 C 12.15 g/m*3 18.9 C 8.1 km/h
489 02-10-2020 16:40:00 18.9 C 12.47 g/m*3 18.9 C 11.3 km/h
490 02-10-2020 16:45:00 18.9 C 11.83 g/m*3 18.9 C 6.4 km/h
491 02-10-2020 16:50:00 18.9 C 12.64 g/m*3 18.9 C 8.1 km/h
492 02-10-2020 16:55:00 18.9 C 12.64 g/m*3 18.9 C 3.2 km/h
493 02-10-2020 17:00:00 18.8 C 12.24 g/m*3 18.8 C 4.8 km/h
494 02-10-2020 17:05:00 18.7 C 12.49 g/m*3 18.7 C 3.2 km/h
495 02-10-2020 17:10:00 18.6 C 12.1 g/m*3 18.6 C 8.1 km/h
496 02-10-2020 17:15:00 18.6 C 11.78 g/m*3 18.6 C 8.1 km/h
497 02-10-2020 17:20:00 18.6 C 11.78 g/m*3 18.6 C 11.3 km/h
498 02-10-2020 17:25:00 18.7 C 11.85 g/m*3 18.7 C 9.7 km/h
499 02-10-2020 17:30:00 18.7 C 11.69 g/m*3 18.7 C 11.3 km/h
500 02-10-2020 17:35:00 18.7 C 12.17 g/m*3 18.7 C 6.4 km/h
Sensor: Nr:Datum:Temp:Abs-Feuchte:Windchill:Wind:
Aussen-T/F 501 02-10-2020 17:40:00 18.6 C 12.26 g/m*3 18.6 C 3.2 km/h
502 02-10-2020 17:45:00 18.4 C 12.43 g/m*3 18.4 C 4.8 km/h
503 02-10-2020 17:50:00 18.2 C 12.59 g/m*3 18.2 C 4.8 km/h
504 02-10-2020 17:55:00 17.9 C 12.37 g/m*3 17.9 C 4.8 km/h
505 02-10-2020 18:00:00 17.7 C 12.37 g/m*3 17.7 C 1.6 km/h
506 02-10-2020 18:05:00 17.4 C 12.15 g/m*3 17.4 C 3.2 km/h
507 02-10-2020 18:10:00 17.2 C 12.15 g/m*3 17.2 C 4.8 km/h
508 02-10-2020 18:15:00 17.2 C 12.01 g/m*3 17.2 C 8.1 km/h
509 02-10-2020 18:20:00 17.2 C 12.01 g/m*3 17.2 C 4.8 km/h
510 02-10-2020 18:25:00 17.2 C 11.86 g/m*3 17.2 C 1.6 km/h
511 02-10-2020 18:30:00 17.2 C 12.01 g/m*3 17.2 C 11.3 km/h
512 02-10-2020 18:35:00 17.2 C 11.72 g/m*3 17.2 C 12.9 km/h
513 02-10-2020 18:40:00 17.5 C 12.08 g/m*3 17.5 C 4.8 km/h
514 02-10-2020 18:45:00 17.6 C 11.85 g/m*3 17.6 C 11.3 km/h
515 02-10-2020 18:50:00 17.7 C 12.07 g/m*3 17.7 C 8.1 km/h
516 02-10-2020 18:55:00 17.8 C 11.84 g/m*3 17.8 C 11.3 km/h
517 02-10-2020 19:00:00 17.8 C 11.84 g/m*3 17.8 C 9.7 km/h
518 02-10-2020 19:05:00 18.1 C 12.05 g/m*3 18.1 C 8.1 km/h
519 02-10-2020 19:10:00 18 C 12.13 g/m*3 18 C 3.2 km/h
520 02-10-2020 19:15:00 17.8 C 11.84 g/m*3 17.8 C 6.4 km/h
521 02-10-2020 19:20:00 17.8 C 12.14 g/m*3 17.8 C 6.4 km/h
522 02-10-2020 19:25:00 17.6 C 12.15 g/m*3 17.6 C 4.8 km/h
523 02-10-2020 19:30:00 17.4 C 12.15 g/m*3 17.4 C 4.8 km/h
524 02-10-2020 19:35:00 17.1 C 11.79 g/m*3 17.1 C 4.8 km/h
525 02-10-2020 19:40:00 16.9 C 11.79 g/m*3 16.9 C 4.8 km/h
Sensor: Nr:Datum:Temp:Abs-Feuchte:Windchill:Wind:
Aussen-T/F 526 02-10-2020 19:45:00 16.9 C 11.94 g/m*3 16.9 C 8.1 km/h
527 02-10-2020 19:50:00 16.9 C 11.79 g/m*3 16.9 C 6.4 km/h
528 02-10-2020 19:55:00 17 C 11.87 g/m*3 17 C 8.1 km/h
529 02-10-2020 20:00:00 17.2 C 12.01 g/m*3 17.2 C 8.1 km/h
530 02-10-2020 20:05:00 17.2 C 12.01 g/m*3 17.2 C 6.4 km/h
531 02-10-2020 20:10:00 17.2 C 12.01 g/m*3 17.2 C 6.4 km/h
532 02-10-2020 20:15:00 17.1 C 11.79 g/m*3 17.1 C 9.7 km/h
533 02-10-2020 20:20:00 17.1 C 12.08 g/m*3 17.1 C 3.2 km/h
534 02-10-2020 20:25:00 16.9 C 11.79 g/m*3 16.9 C 3.2 km/h
535 02-10-2020 20:30:00 17 C 11.87 g/m*3 17 C 9.7 km/h
536 02-10-2020 20:35:00 17.1 C 11.65 g/m*3 17.1 C 9.7 km/h
537 02-10-2020 20:40:00 17.2 C 11.72 g/m*3 17.2 C 6.4 km/h
538 02-10-2020 20:45:00 17.2 C 12.01 g/m*3 17.2 C 3.2 km/h
539 02-10-2020 20:50:00 17.3 C 11.49 g/m*3 17.3 C 17.7 km/h
540 02-10-2020 20:55:00 17.4 C 11.56 g/m*3 17.4 C 17.7 km/h
541 02-10-2020 21:00:00 17.7 C 11.47 g/m*3 17.7 C 12.9 km/h
542 02-10-2020 21:05:00 17.9 C 11.6 g/m*3 17.9 C 11.3 km/h
543 02-10-2020 21:10:00 17.9 C 11.76 g/m*3 17.9 C 1.6 km/h
544 02-10-2020 21:15:00 17.8 C 11.84 g/m*3 17.8 C 6.4 km/h
545 02-10-2020 21:20:00 17.7 C 11.77 g/m*3 17.7 C 3.2 km/h
546 02-10-2020 21:25:00 17.6 C 12 g/m*3 17.6 C 3.2 km/h
547 02-10-2020 21:30:00 17.4 C 11.56 g/m*3 17.4 C 6.4 km/h
548 02-10-2020 21:35:00 17.3 C 11.93 g/m*3 17.3 C 1.6 km/h
549 02-10-2020 21:40:00 17.2 C 12.01 g/m*3 17.2 C 0 km/h
550 02-10-2020 21:45:00 17 C 11.87 g/m*3 17 C 1.6 km/h
Sensor: Nr:Datum:Temp:Abs-Feuchte:Windchill:Wind:
Aussen-T/F 551 02-10-2020 21:50:00 16.9 C 11.79 g/m*3 16.9 C 3.2 km/h
552 02-10-2020 21:55:00 16.8 C 11.72 g/m*3 16.8 C 3.2 km/h
553 02-10-2020 22:00:00 16.8 C 11.44 g/m*3 16.8 C 9.7 km/h
554 02-10-2020 22:05:00 16.9 C 11.65 g/m*3 16.9 C 6.4 km/h
555 02-10-2020 22:10:00 17 C 11.87 g/m*3 17 C 0 km/h
556 02-10-2020 22:15:00 16.9 C 11.79 g/m*3 16.9 C 1.6 km/h
557 02-10-2020 22:20:00 16.7 C 11.65 g/m*3 16.7 C 1.6 km/h
558 02-10-2020 22:25:00 16.6 C 11.3 g/m*3 16.6 C 4.8 km/h
559 02-10-2020 22:30:00 16.6 C 11.58 g/m*3 16.6 C 4.8 km/h
560 02-10-2020 22:35:00 16.6 C 11.3 g/m*3 16.6 C 6.4 km/h
561 02-10-2020 22:40:00 16.6 C 11.44 g/m*3 16.6 C 4.8 km/h
562 02-10-2020 22:45:00 16.7 C 11.51 g/m*3 16.7 C 6.4 km/h
563 02-10-2020 22:50:00 16.7 C 11.65 g/m*3 16.7 C 3.2 km/h
564 02-10-2020 22:55:00 16.6 C 11.58 g/m*3 16.6 C 3.2 km/h
565 02-10-2020 23:00:00 16.4 C 11.17 g/m*3 16.4 C 3.2 km/h
566 02-10-2020 23:05:00 16.4 C 11.31 g/m*3 16.4 C 3.2 km/h
567 02-10-2020 23:10:00 16.6 C 11.3 g/m*3 16.6 C 6.4 km/h
568 02-10-2020 23:15:00 16.7 C 11.37 g/m*3 16.7 C 9.7 km/h
569 02-10-2020 23:20:00 16.9 C 11.36 g/m*3 16.9 C 8.1 km/h
570 02-10-2020 23:25:00 17 C 11.29 g/m*3 17 C 12.9 km/h
571 02-10-2020 23:30:00 17.3 C 11.34 g/m*3 17.3 C 14.5 km/h
572 02-10-2020 23:35:00 17.3 C 11.2 g/m*3 17.3 C 8.1 km/h
573 02-10-2020 23:40:00 17.6 C 11.25 g/m*3 17.6 C 17.7 km/h
574 02-10-2020 23:45:00 17.7 C 11.16 g/m*3 17.7 C 16.1 km/h
575 02-10-2020 23:50:00 17.7 C 11.47 g/m*3 17.7 C 14.5 km/h
Sensor: Nr:Datum:Temp:Abs-Feuchte:Windchill:Wind:
Aussen-T/F 576 02-10-2020 23:55:00 17.7 C 11.16 g/m*3 17.7 C 16.1 km/h
577 03-10-2020 00:00:00 17.7 C 11.16 g/m*3 17.7 C 12.9 km/h
578 03-10-2020 00:05:00 17.7 C 11.16 g/m*3 17.7 C 6.4 km/h
579 03-10-2020 00:10:00 17.6 C 11.25 g/m*3 17.6 C 3.2 km/h
580 03-10-2020 00:15:00 17.5 C 11.33 g/m*3 17.5 C 3.2 km/h
581 03-10-2020 00:20:00 17.3 C 11.2 g/m*3 17.3 C 9.7 km/h
582 03-10-2020 00:25:00 17.2 C 11.28 g/m*3 17.2 C 8.1 km/h
583 03-10-2020 00:30:00 17.1 C 11.06 g/m*3 17.1 C 4.8 km/h
584 03-10-2020 00:35:00 17.1 C 11.06 g/m*3 17.1 C 9.7 km/h
585 03-10-2020 00:40:00 17.2 C 11.13 g/m*3 17.2 C 9.7 km/h
586 03-10-2020 00:45:00 17.3 C 11.05 g/m*3 17.3 C 9.7 km/h
587 03-10-2020 00:50:00 17.3 C 11.34 g/m*3 17.3 C 6.4 km/h
588 03-10-2020 00:55:00 17.3 C 11.2 g/m*3 17.3 C 8.1 km/h
589 03-10-2020 01:00:00 17.3 C 11.2 g/m*3 17.3 C 9.7 km/h
590 03-10-2020 01:05:00 17.3 C 11.05 g/m*3 17.3 C 6.4 km/h
591 03-10-2020 01:10:00 17.3 C 11.05 g/m*3 17.3 C 8.1 km/h
592 03-10-2020 01:15:00 17.3 C 11.2 g/m*3 17.3 C 4.8 km/h
593 03-10-2020 01:20:00 17.3 C 11.05 g/m*3 17.3 C 8.1 km/h
594 03-10-2020 01:25:00 17.3 C 11.2 g/m*3 17.3 C 9.7 km/h
595 03-10-2020 01:30:00 17.2 C 11.13 g/m*3 17.2 C 8.1 km/h
596 03-10-2020 01:35:00 17.1 C 11.06 g/m*3 17.1 C 4.8 km/h
597 03-10-2020 01:40:00 17.1 C 11.06 g/m*3 17.1 C 12.9 km/h
598 03-10-2020 01:45:00 17.1 C 11.21 g/m*3 17.1 C 11.3 km/h
599 03-10-2020 01:50:00 16.9 C 11.08 g/m*3 16.9 C 1.6 km/h
600 03-10-2020 01:55:00 16.8 C 11.01 g/m*3 16.8 C 12.9 km/h
Sensor: Nr:Datum:Temp:Abs-Feuchte:Windchill:Wind:
Aussen-T/F 601 03-10-2020 02:00:00 16.8 C 10.87 g/m*3 16.8 C 6.4 km/h
602 03-10-2020 02:05:00 16.8 C 11.15 g/m*3 16.8 C 3.2 km/h
603 03-10-2020 02:10:00 16.6 C 11.02 g/m*3 16.6 C 3.2 km/h
604 03-10-2020 02:15:00 16.3 C 10.96 g/m*3 16.3 C 1.6 km/h
605 03-10-2020 02:20:00 16.1 C 10.97 g/m*3 16.1 C 3.2 km/h
606 03-10-2020 02:25:00 15.8 C 10.9 g/m*3 15.8 C 3.2 km/h
607 03-10-2020 02:30:00 15.4 C 10.77 g/m*3 15.4 C 4.8 km/h
608 03-10-2020 02:35:00 15.3 C 10.84 g/m*3 15.3 C 6.4 km/h
609 03-10-2020 02:40:00 15.2 C 10.9 g/m*3 15.2 C 1.6 km/h
610 03-10-2020 02:45:00 15.1 C 10.84 g/m*3 15.1 C 1.6 km/h
611 03-10-2020 02:50:00 14.8 C 10.77 g/m*3 14.8 C 0 km/h
612 03-10-2020 02:55:00 14.6 C 10.76 g/m*3 14.6 C 4.8 km/h
613 03-10-2020 03:00:00 14.4 C 10.63 g/m*3 14.4 C 1.6 km/h
614 03-10-2020 03:05:00 14.3 C 10.69 g/m*3 14.3 C 4.8 km/h
615 03-10-2020 03:10:00 14.2 C 10.75 g/m*3 14.2 C 3.2 km/h
616 03-10-2020 03:15:00 14.2 C 10.87 g/m*3 14.2 C 0 km/h
617 03-10-2020 03:20:00 14.2 C 10.87 g/m*3 14.2 C 6.4 km/h
618 03-10-2020 03:25:00 14.2 C 10.87 g/m*3 14.2 C 1.6 km/h
619 03-10-2020 03:30:00 14.3 C 11.06 g/m*3 14.3 C 3.2 km/h
620 03-10-2020 03:35:00 14.3 C 11.06 g/m*3 14.3 C 4.8 km/h
621 03-10-2020 03:40:00 14.3 C 11.06 g/m*3 14.3 C 3.2 km/h
622 03-10-2020 03:45:00 14.3 C 11.06 g/m*3 14.3 C 3.2 km/h
623 03-10-2020 03:50:00 14.3 C 11.06 g/m*3 14.3 C 0 km/h
624 03-10-2020 03:55:00 14.3 C 11.06 g/m*3 14.3 C 0 km/h
625 03-10-2020 04:00:00 14.3 C 11.06 g/m*3 14.3 C 0 km/h
Sensor: Nr:Datum:Temp:Abs-Feuchte:Windchill:Wind:
Aussen-T/F 626 03-10-2020 04:05:00 14.2 C 10.99 g/m*3 14.2 C 0 km/h
627 03-10-2020 04:10:00 14.2 C 10.99 g/m*3 14.2 C 0 km/h
628 03-10-2020 04:15:00 14.2 C 10.99 g/m*3 14.2 C 0 km/h
629 03-10-2020 04:20:00 14.2 C 10.99 g/m*3 14.2 C 0 km/h
630 03-10-2020 04:25:00 14.2 C 10.99 g/m*3 14.2 C 0 km/h
631 03-10-2020 04:30:00 14.2 C 10.99 g/m*3 14.2 C 0 km/h
632 03-10-2020 04:35:00 14.2 C 11.11 g/m*3 14.2 C 0 km/h
633 03-10-2020 04:40:00 14.2 C 11.11 g/m*3 14.2 C 0 km/h
634 03-10-2020 04:45:00 14.2 C 11.11 g/m*3 14.2 C 0 km/h
635 03-10-2020 04:50:00 14.1 C 11.04 g/m*3 14.1 C 0 km/h
636 03-10-2020 04:55:00 14.1 C 11.04 g/m*3 14.1 C 0 km/h
637 03-10-2020 05:00:00 14.1 C 11.04 g/m*3 14.1 C 0 km/h
638 03-10-2020 05:05:00 14.1 C 11.04 g/m*3 14.1 C 0 km/h
639 03-10-2020 05:10:00 14.1 C 11.04 g/m*3 14.1 C 0 km/h
640 03-10-2020 05:15:00 14 C 10.98 g/m*3 14 C 0 km/h
641 03-10-2020 05:20:00 13.9 C 10.79 g/m*3 13.9 C 0 km/h
642 03-10-2020 05:25:00 13.8 C 10.72 g/m*3 13.8 C 0 km/h
643 03-10-2020 05:30:00 13.7 C 10.78 g/m*3 13.7 C 0 km/h
644 03-10-2020 05:35:00 13.6 C 10.71 g/m*3 13.6 C 0 km/h
645 03-10-2020 05:40:00 13.5 C 10.64 g/m*3 13.5 C 0 km/h
646 03-10-2020 05:45:00 13.4 C 10.58 g/m*3 13.4 C 0 km/h
647 03-10-2020 05:50:00 13.3 C 10.51 g/m*3 13.3 C 0 km/h
648 03-10-2020 05:55:00 13.3 C 10.63 g/m*3 13.3 C 0 km/h
649 03-10-2020 06:00:00 13.3 C 10.63 g/m*3 13.3 C 0 km/h
650 03-10-2020 06:05:00 13.3 C 10.63 g/m*3 13.3 C 0 km/h
Sensor: Nr:Datum:Temp:Abs-Feuchte:Windchill:Wind:
Aussen-T/F 651 03-10-2020 06:10:00 13.3 C 10.63 g/m*3 13.3 C 0 km/h
652 03-10-2020 06:15:00 13.3 C 10.63 g/m*3 13.3 C 0 km/h
653 03-10-2020 06:20:00 13.3 C 10.63 g/m*3 13.3 C 0 km/h
654 03-10-2020 06:25:00 13.3 C 10.63 g/m*3 13.3 C 0 km/h
655 03-10-2020 06:30:00 13.3 C 10.74 g/m*3 13.3 C 0 km/h
656 03-10-2020 06:35:00 13.3 C 10.74 g/m*3 13.3 C 0 km/h
657 03-10-2020 06:40:00 13.3 C 10.74 g/m*3 13.3 C 0 km/h
658 03-10-2020 06:45:00 13.3 C 10.74 g/m*3 13.3 C 0 km/h
659 03-10-2020 06:50:00 13.3 C 10.74 g/m*3 13.3 C 0 km/h
660 03-10-2020 06:55:00 13.3 C 10.74 g/m*3 13.3 C 0 km/h
661 03-10-2020 07:00:00 13.3 C 10.74 g/m*3 13.3 C 0 km/h
662 03-10-2020 07:05:00 13.3 C 10.74 g/m*3 13.3 C 0 km/h
663 03-10-2020 07:10:00 13.3 C 10.74 g/m*3 13.3 C 0 km/h
664 03-10-2020 07:15:00 13.3 C 10.74 g/m*3 13.3 C 0 km/h
665 03-10-2020 07:20:00 13.3 C 10.74 g/m*3 13.3 C 1.6 km/h
666 03-10-2020 07:25:00 13.4 C 10.93 g/m*3 13.4 C 4.8 km/h
667 03-10-2020 07:30:00 13.4 C 10.93 g/m*3 13.4 C 3.2 km/h
668 03-10-2020 07:35:00 13.5 C 10.99 g/m*3 13.5 C 1.6 km/h
669 03-10-2020 07:40:00 13.6 C 11.06 g/m*3 13.6 C 3.2 km/h
670 03-10-2020 07:45:00 13.6 C 11.06 g/m*3 13.6 C 9.7 km/h
671 03-10-2020 07:50:00 13.7 C 11.13 g/m*3 13.7 C 4.8 km/h
672 03-10-2020 07:55:00 13.7 C 11.13 g/m*3 13.7 C 3.2 km/h
673 03-10-2020 08:00:00 13.7 C 11.13 g/m*3 13.7 C 6.4 km/h
674 03-10-2020 08:05:00 13.8 C 11.2 g/m*3 13.8 C 8.1 km/h
675 03-10-2020 08:10:00 13.8 C 11.2 g/m*3 13.8 C 8.1 km/h
Sensor: Nr:Datum:Temp:Abs-Feuchte:Windchill:Wind:
Aussen-T/F 676 03-10-2020 08:15:00 13.8 C 11.2 g/m*3 13.8 C 4.8 km/h
677 03-10-2020 08:20:00 13.8 C 11.2 g/m*3 13.8 C 4.8 km/h
678 03-10-2020 08:25:00 13.9 C 11.27 g/m*3 13.9 C 3.2 km/h
679 03-10-2020 08:30:00 13.9 C 11.27 g/m*3 13.9 C 4.8 km/h
680 03-10-2020 08:35:00 13.9 C 11.27 g/m*3 13.9 C 6.4 km/h
681 03-10-2020 08:40:00 13.9 C 11.15 g/m*3 13.9 C 6.4 km/h
682 03-10-2020 08:45:00 13.9 C 11.15 g/m*3 13.9 C 6.4 km/h
683 03-10-2020 08:50:00 13.9 C 11.15 g/m*3 13.9 C 4.8 km/h
684 03-10-2020 08:55:00 13.9 C 11.15 g/m*3 13.9 C 3.2 km/h
685 03-10-2020 09:00:00 13.9 C 11.15 g/m*3 13.9 C 4.8 km/h
686 03-10-2020 09:05:00 13.9 C 11.15 g/m*3 13.9 C 3.2 km/h
687 03-10-2020 09:10:00 13.9 C 11.15 g/m*3 13.9 C 9.7 km/h
688 03-10-2020 09:15:00 13.9 C 11.15 g/m*3 13.9 C 4.8 km/h
689 03-10-2020 09:20:00 13.8 C 10.96 g/m*3 13.8 C 9.7 km/h
690 03-10-2020 09:25:00 13.8 C 10.96 g/m*3 13.8 C 8.1 km/h
691 03-10-2020 09:30:00 13.8 C 10.96 g/m*3 13.8 C 6.4 km/h
692 03-10-2020 09:35:00 13.8 C 10.96 g/m*3 13.8 C 6.4 km/h
693 03-10-2020 09:40:00 13.8 C 10.96 g/m*3 13.8 C 6.4 km/h
694 03-10-2020 09:45:00 13.8 C 10.96 g/m*3 13.8 C 11.3 km/h
695 03-10-2020 09:50:00 13.8 C 10.84 g/m*3 13.8 C 8.1 km/h
696 03-10-2020 09:55:00 13.8 C 10.84 g/m*3 13.8 C 14.5 km/h
697 03-10-2020 10:00:00 13.8 C 10.72 g/m*3 13.8 C 14.5 km/h
698 03-10-2020 10:05:00 13.8 C 10.72 g/m*3 13.8 C 9.7 km/h
699 03-10-2020 10:10:00 13.8 C 10.72 g/m*3 13.8 C 11.3 km/h
700 03-10-2020 10:15:00 13.8 C 10.72 g/m*3 13.8 C 11.3 km/h
Sensor: Nr:Datum:Temp:Abs-Feuchte:Windchill:Wind:
Aussen-T/F 701 03-10-2020 10:20:00 13.7 C 10.66 g/m*3 13.7 C 9.7 km/h
702 03-10-2020 10:25:00 13.7 C 10.66 g/m*3 13.7 C 11.3 km/h
703 03-10-2020 10:30:00 13.7 C 10.66 g/m*3 13.7 C 12.9 km/h
704 03-10-2020 10:35:00 13.6 C 10.47 g/m*3 13.6 C 12.9 km/h
705 03-10-2020 10:40:00 13.6 C 10.47 g/m*3 13.6 C 12.9 km/h
706 03-10-2020 10:45:00 13.6 C 10.47 g/m*3 13.6 C 11.3 km/h
707 03-10-2020 10:50:00 13.6 C 10.47 g/m*3 13.6 C 12.9 km/h
708 03-10-2020 10:55:00 13.6 C 10.47 g/m*3 13.6 C 9.7 km/h
709 03-10-2020 11:00:00 13.6 C 10.36 g/m*3 13.6 C 11.3 km/h
710 03-10-2020 11:05:00 13.6 C 10.36 g/m*3 13.6 C 11.3 km/h
711 03-10-2020 11:10:00 13.6 C 10.36 g/m*3 13.6 C 6.4 km/h
712 03-10-2020 11:15:00 13.6 C 10.36 g/m*3 13.6 C 12.9 km/h
713 03-10-2020 11:20:00 13.6 C 10.36 g/m*3 13.6 C 17.7 km/h
714 03-10-2020 11:25:00 13.6 C 10.36 g/m*3 13.6 C 17.7 km/h
715 03-10-2020 11:30:00 13.5 C 10.41 g/m*3 13.5 C 8.1 km/h
716 03-10-2020 11:35:00 13.5 C 10.41 g/m*3 13.5 C 12.9 km/h
717 03-10-2020 11:40:00 13.5 C 10.41 g/m*3 13.5 C 12.9 km/h
718 03-10-2020 11:45:00 13.5 C 10.29 g/m*3 13.5 C 11.3 km/h
719 03-10-2020 11:50:00 13.4 C 10.23 g/m*3 13.4 C 11.3 km/h
720 03-10-2020 11:55:00 13.4 C 10.23 g/m*3 13.4 C 16.1 km/h
721 03-10-2020 12:00:00 13.3 C 10.17 g/m*3 13.3 C 12.9 km/h
722 03-10-2020 12:05:00 13.2 C 10.1 g/m*3 13.2 C 8.1 km/h
723 03-10-2020 12:10:00 13.1 C 10.04 g/m*3 13.1 C 6.4 km/h
724 03-10-2020 12:15:00 13.1 C 10.04 g/m*3 13.1 C 14.5 km/h
725 03-10-2020 12:20:00 12.9 C 9.81 g/m*3 12.9 C 14.5 km/h
Sensor: Nr:Datum:Temp:Abs-Feuchte:Windchill:Wind:
Aussen-T/F 726 03-10-2020 12:25:00 12.9 C 9.92 g/m*3 12.9 C 14.5 km/h
727 03-10-2020 12:30:00 12.9 C 9.81 g/m*3 12.9 C 8.1 km/h
728 03-10-2020 12:35:00 13 C 9.87 g/m*3 13 C 11.3 km/h
729 03-10-2020 12:40:00 13.1 C 9.93 g/m*3 13.1 C 14.5 km/h
730 03-10-2020 12:45:00 13.1 C 9.93 g/m*3 13.1 C 14.5 km/h
731 03-10-2020 12:50:00 13.2 C 9.87 g/m*3 13.2 C 20.9 km/h
732 03-10-2020 12:55:00 13.2 C 9.87 g/m*3 13.2 C 20.9 km/h
733 03-10-2020 13:00:00 13.1 C 9.81 g/m*3 13.1 C 22.5 km/h
734 03-10-2020 13:05:00 13.1 C 9.81 g/m*3 13.1 C 11.3 km/h
735 03-10-2020 13:10:00 13.1 C 9.7 g/m*3 13.1 C 16.1 km/h
736 03-10-2020 13:15:00 13.1 C 9.7 g/m*3 13.1 C 11.3 km/h
737 03-10-2020 13:20:00 13.2 C 9.76 g/m*3 13.2 C 14.5 km/h
738 03-10-2020 13:25:00 13.1 C 9.7 g/m*3 13.1 C 16.1 km/h
739 03-10-2020 13:30:00 13.1 C 9.81 g/m*3 13.1 C 6.4 km/h
740 03-10-2020 13:35:00 13 C 9.87 g/m*3 13 C 6.4 km/h
741 03-10-2020 13:40:00 12.8 C 9.63 g/m*3 12.8 C 11.3 km/h
742 03-10-2020 13:45:00 12.8 C 9.74 g/m*3 12.8 C 4.8 km/h
743 03-10-2020 13:50:00 12.6 C 9.62 g/m*3 12.6 C 4.8 km/h
744 03-10-2020 13:55:00 12.5 C 9.68 g/m*3 12.5 C 4.8 km/h
745 03-10-2020 14:00:00 12.4 C 9.72 g/m*3 12.4 C 6.4 km/h
746 03-10-2020 14:05:00 12.3 C 9.66 g/m*3 12.3 C 9.7 km/h
747 03-10-2020 14:10:00 12.2 C 9.71 g/m*3 12.2 C 4.8 km/h
748 03-10-2020 14:15:00 12.1 C 9.65 g/m*3 12.1 C 4.8 km/h
749 03-10-2020 14:20:00 11.9 C 9.53 g/m*3 11.9 C 6.4 km/h
750 03-10-2020 14:25:00 11.8 C 9.58 g/m*3 11.8 C 3.2 km/h
Sensor: Nr:Datum:Temp:Abs-Feuchte:Windchill:Wind:
Aussen-T/F 751 03-10-2020 14:30:00 11.8 C 9.58 g/m*3 11.8 C 1.6 km/h
752 03-10-2020 14:35:00 11.9 C 9.74 g/m*3 11.9 C 0 km/h
753 03-10-2020 14:40:00 11.9 C 9.74 g/m*3 11.9 C 0 km/h
754 03-10-2020 14:45:00 11.9 C 9.85 g/m*3 11.9 C 0 km/h
755 03-10-2020 14:50:00 12 C 9.91 g/m*3 12 C 0 km/h
756 03-10-2020 14:55:00 12.1 C 9.97 g/m*3 12.1 C 4.8 km/h
757 03-10-2020 15:00:00 12.1 C 9.97 g/m*3 12.1 C 1.6 km/h
758 03-10-2020 15:05:00 12 C 9.91 g/m*3 12 C 3.2 km/h
759 03-10-2020 15:10:00 12.1 C 9.97 g/m*3 12.1 C 3.2 km/h
760 03-10-2020 15:15:00 12 C 9.91 g/m*3 12 C 3.2 km/h
761 03-10-2020 15:20:00 11.9 C 9.74 g/m*3 11.9 C 1.6 km/h
762 03-10-2020 15:25:00 11.9 C 9.85 g/m*3 11.9 C 0 km/h
763 03-10-2020 15:30:00 11.9 C 9.74 g/m*3 11.9 C 0 km/h
764 03-10-2020 15:35:00 11.9 C 9.74 g/m*3 11.9 C 0 km/h
765 03-10-2020 15:40:00 11.9 C 9.74 g/m*3 11.9 C 0 km/h
766 03-10-2020 15:45:00 11.8 C 9.58 g/m*3 11.8 C 4.8 km/h
767 03-10-2020 15:50:00 11.9 C 9.64 g/m*3 11.9 C 1.6 km/h
768 03-10-2020 15:55:00 11.9 C 9.74 g/m*3 11.9 C 1.6 km/h
769 03-10-2020 16:00:00 11.9 C 9.74 g/m*3 11.9 C 0 km/h
770 03-10-2020 16:05:00 12 C 9.8 g/m*3 12 C 0 km/h
771 03-10-2020 16:10:00 12.1 C 9.76 g/m*3 12.1 C 1.6 km/h
772 03-10-2020 16:15:00 12.1 C 9.76 g/m*3 12.1 C 1.6 km/h
773 03-10-2020 16:20:00 12.1 C 9.65 g/m*3 12.1 C 1.6 km/h
774 03-10-2020 16:25:00 12.2 C 9.71 g/m*3 12.2 C 1.6 km/h
775 03-10-2020 16:30:00 12.4 C 9.72 g/m*3 12.4 C 0 km/h
Sensor: Nr:Datum:Temp:Abs-Feuchte:Windchill:Wind:
Aussen-T/F 776 03-10-2020 16:35:00 12.6 C 9.74 g/m*3 12.6 C 3.2 km/h
777 03-10-2020 16:40:00 12.7 C 9.68 g/m*3 12.7 C 1.6 km/h
778 03-10-2020 16:45:00 12.8 C 9.63 g/m*3 12.8 C 6.4 km/h
779 03-10-2020 16:50:00 12.8 C 9.86 g/m*3 12.8 C 3.2 km/h
780 03-10-2020 16:55:00 12.9 C 9.92 g/m*3 12.9 C 1.6 km/h
781 03-10-2020 17:00:00 13.1 C 9.93 g/m*3 13.1 C 0 km/h
782 03-10-2020 17:05:00 13.2 C 10.1 g/m*3 13.2 C 0 km/h
783 03-10-2020 17:10:00 13.3 C 9.94 g/m*3 13.3 C 6.4 km/h
784 03-10-2020 17:15:00 13.6 C 10 g/m*3 13.6 C 4.8 km/h
785 03-10-2020 17:20:00 13.7 C 9.95 g/m*3 13.7 C 3.2 km/h
786 03-10-2020 17:25:00 13.9 C 9.95 g/m*3 13.9 C 6.4 km/h
787 03-10-2020 17:30:00 14.1 C 10.07 g/m*3 14.1 C 6.4 km/h
788 03-10-2020 17:35:00 14.4 C 10.26 g/m*3 14.4 C 3.2 km/h
789 03-10-2020 17:40:00 14.8 C 10.39 g/m*3 14.8 C 3.2 km/h
790 03-10-2020 17:45:00 15.3 C 10.84 g/m*3 15.3 C 0 km/h
791 03-10-2020 17:50:00 15.8 C 11.04 g/m*3 15.8 C 0 km/h
792 03-10-2020 17:55:00 16.2 C 11.17 g/m*3 16.2 C 0 km/h
793 03-10-2020 18:00:00 16.3 C 11.1 g/m*3 16.3 C 4.8 km/h
794 03-10-2020 18:05:00 16.2 C 10.89 g/m*3 16.2 C 0 km/h
795 03-10-2020 18:10:00 15.8 C 10.5 g/m*3 15.8 C 6.4 km/h
796 03-10-2020 18:15:00 15.6 C 10.64 g/m*3 15.6 C 4.8 km/h
797 03-10-2020 18:20:00 15.1 C 10.32 g/m*3 15.1 C 4.8 km/h
798 03-10-2020 18:25:00 14.6 C 10.01 g/m*3 14.6 C 4.8 km/h
799 03-10-2020 18:30:00 14.1 C 9.95 g/m*3 14.1 C 4.8 km/h
800 03-10-2020 18:35:00 13.7 C 9.95 g/m*3 13.7 C 0 km/h
Sensor: Nr:Datum:Temp:Abs-Feuchte:Windchill:Wind:
Aussen-T/F 801 03-10-2020 18:40:00 13.3 C 9.82 g/m*3 13.3 C 3.2 km/h
802 03-10-2020 18:45:00 13.1 C 9.81 g/m*3 13.1 C 3.2 km/h
803 03-10-2020 18:50:00 12.9 C 9.81 g/m*3 12.9 C 4.8 km/h
804 03-10-2020 18:55:00 12.7 C 9.8 g/m*3 12.7 C 4.8 km/h
805 03-10-2020 19:00:00 12.5 C 9.68 g/m*3 12.5 C 4.8 km/h
806 03-10-2020 19:05:00 12.3 C 9.56 g/m*3 12.3 C 3.2 km/h
807 03-10-2020 19:10:00 12.2 C 9.6 g/m*3 12.2 C 4.8 km/h
808 03-10-2020 19:15:00 12 C 9.48 g/m*3 12 C 1.6 km/h
809 03-10-2020 19:20:00 11.9 C 9.53 g/m*3 11.9 C 3.2 km/h
810 03-10-2020 19:25:00 11.8 C 9.47 g/m*3 11.8 C 4.8 km/h
811 03-10-2020 19:30:00 11.8 C 9.47 g/m*3 11.8 C 0 km/h
812 03-10-2020 19:35:00 11.7 C 9.52 g/m*3 11.7 C 0 km/h
813 03-10-2020 19:40:00 11.7 C 9.52 g/m*3 11.7 C 0 km/h
814 03-10-2020 19:45:00 11.6 C 9.46 g/m*3 11.6 C 1.6 km/h
815 03-10-2020 19:50:00 11.6 C 9.46 g/m*3 11.6 C 0 km/h
816 03-10-2020 19:55:00 11.5 C 9.4 g/m*3 11.5 C 0 km/h
817 03-10-2020 20:00:00 11.5 C 9.4 g/m*3 11.5 C 3.2 km/h
818 03-10-2020 20:05:00 11.5 C 9.4 g/m*3 11.5 C 1.6 km/h
819 03-10-2020 20:10:00 11.4 C 9.34 g/m*3 11.4 C 1.6 km/h
820 03-10-2020 20:15:00 11.4 C 9.24 g/m*3 11.4 C 6.4 km/h
821 03-10-2020 20:20:00 11.5 C 9.3 g/m*3 11.5 C 3.2 km/h
822 03-10-2020 20:25:00 11.6 C 9.25 g/m*3 11.6 C 3.2 km/h
823 03-10-2020 20:30:00 11.6 C 9.25 g/m*3 11.6 C 1.6 km/h
824 03-10-2020 20:35:00 11.4 C 9.14 g/m*3 11.4 C 0 km/h
825 03-10-2020 20:40:00 11.3 C 9.08 g/m*3 11.3 C 0 km/h
Sensor: Nr:Datum:Temp:Abs-Feuchte:Windchill:Wind:
Aussen-T/F 826 03-10-2020 20:45:00 11.3 C 9.18 g/m*3 11.3 C 4.8 km/h
827 03-10-2020 20:50:00 11.2 C 9.12 g/m*3 11.2 C 0 km/h
828 03-10-2020 20:55:00 11.1 C 9.07 g/m*3 11.1 C 1.6 km/h
829 03-10-2020 21:00:00 10.9 C 8.95 g/m*3 10.9 C 3.2 km/h
830 03-10-2020 21:05:00 10.8 C 8.99 g/m*3 10.8 C 0 km/h
831 03-10-2020 21:10:00 10.8 C 8.99 g/m*3 10.8 C 0 km/h
832 03-10-2020 21:15:00 10.7 C 9.04 g/m*3 10.7 C 0 km/h
833 03-10-2020 21:20:00 10.7 C 9.04 g/m*3 10.7 C 0 km/h
834 03-10-2020 21:25:00 10.8 C 9.19 g/m*3 10.8 C 0 km/h
835 03-10-2020 21:30:00 10.8 C 9.19 g/m*3 10.8 C 1.6 km/h
836 03-10-2020 21:35:00 10.8 C 9.19 g/m*3 10.8 C 1.6 km/h
837 03-10-2020 21:40:00 10.9 C 9.25 g/m*3 10.9 C 0 km/h
838 03-10-2020 21:45:00 10.9 C 9.25 g/m*3 10.9 C 3.2 km/h
839 03-10-2020 21:50:00 10.9 C 9.25 g/m*3 10.9 C 0 km/h
840 03-10-2020 21:55:00 10.8 C 9.19 g/m*3 10.8 C 0 km/h
841 03-10-2020 22:00:00 10.7 C 9.13 g/m*3 10.7 C 4.8 km/h
842 03-10-2020 22:05:00 10.6 C 9.08 g/m*3 10.6 C 1.6 km/h
843 03-10-2020 22:10:00 10.5 C 9.02 g/m*3 10.5 C 0 km/h
844 03-10-2020 22:15:00 10.4 C 8.96 g/m*3 10.4 C 3.2 km/h
845 03-10-2020 22:20:00 10.3 C 8.91 g/m*3 10.3 C 3.2 km/h
846 03-10-2020 22:25:00 10.2 C 8.85 g/m*3 10.2 C 3.2 km/h
847 03-10-2020 22:30:00 10.1 C 8.79 g/m*3 10.1 C 1.6 km/h
848 03-10-2020 22:35:00 10.1 C 8.89 g/m*3 10.1 C 4.8 km/h
849 03-10-2020 22:40:00 10.2 C 8.95 g/m*3 10.2 C 1.6 km/h
850 03-10-2020 22:45:00 10.2 C 8.95 g/m*3 10.2 C 3.2 km/h
Sensor: Nr:Datum:Temp:Abs-Feuchte:Windchill:Wind:
Aussen-T/F 851 03-10-2020 22:50:00 10.4 C 9.16 g/m*3 10.4 C 1.6 km/h
852 03-10-2020 22:55:00 10.6 C 9.17 g/m*3 10.6 C 3.2 km/h
853 03-10-2020 23:00:00 10.7 C 9.23 g/m*3 9.81 C 8.1 km/h
854 03-10-2020 23:05:00 10.9 C 9.35 g/m*3 10.41 C 6.4 km/h
855 03-10-2020 23:10:00 11.1 C 9.37 g/m*3 11.1 C 1.6 km/h
856 03-10-2020 23:15:00 11.2 C 9.33 g/m*3 11.2 C 3.2 km/h
857 03-10-2020 23:20:00 11.3 C 9.38 g/m*3 11.3 C 8.1 km/h
858 03-10-2020 23:25:00 11.4 C 9.34 g/m*3 11.4 C 4.8 km/h
859 03-10-2020 23:30:00 11.4 C 9.34 g/m*3 11.4 C 3.2 km/h
860 03-10-2020 23:35:00 11.4 C 9.34 g/m*3 11.4 C 3.2 km/h
861 03-10-2020 23:40:00 11.3 C 9.28 g/m*3 11.3 C 6.4 km/h
862 03-10-2020 23:45:00 11.3 C 9.18 g/m*3 11.3 C 4.8 km/h
863 03-10-2020 23:50:00 11.2 C 9.12 g/m*3 11.2 C 3.2 km/h
864 03-10-2020 23:55:00 11.1 C 9.07 g/m*3 11.1 C 6.4 km/h

Legende:
   Min
   Max


Maximal/Minimal-Werte vom 01.10.2020 - 03.10.2020

Sensor Min Max Avg
Temp
(Aussen-T/F)
7.8 °C
02-10-2020  04:50:00
18.9 °C
02-10-2020  16:15:00
13.12 °C
Abs-Feuchte
(Aussen-T/F)
7.83 g/m*3
02-10-2020  04:50:00
13.04 g/m*3
01-10-2020  18:10:00
10.3 g/m*3
Windchill
(Aussen-T/F)
7.8 C
02-10-2020  04:50:00
18.9 C
02-10-2020  16:15:00
13.1 C

Die Daten stammen von einer Davis Vantage Pro 2 Wetter-Station und werden unter Linux mit der Software wview2wettercgi und aufbereitet. Alle Angaben erfolgen ohne Gewähr für ihre Vollständigkeit oder Richtigkeit.
Kontakt: Rainer Krienke krienke@uni-koblenz.de . Meine Webseiten an der Uni Koblenz oder privat.
Version: $Revision: 0.78 $